Sign-in with your pilot id or email, or register

ICAO: EYVI Name / Country: VILNIUS INTL / Lithuania
Latitude: 54.6341 Longitude: 25.2858
Total Arrivals:
Strict Standards: Non-static method AirportData::getarrflights() should not be called statically, assuming $this from incompatible context in /var/www/customers/vh-7192/web/home/phpvms/core/templates/airport_info.tpl on line 18
5
Total Departures:
Strict Standards: Non-static method AirportData::getdeptflights() should not be called statically, assuming $this from incompatible context in /var/www/customers/vh-7192/web/home/phpvms/core/templates/airport_info.tpl on line 21
0
Latest Arrival: 0318 (LOWS-EYVI) Laszlo Bartucz Latest Departure: (-)
Metar: EYVI 151820Z 05004KT CAVOK 17/08 Q1013 NOSIG
More info

Charts for EYVI


NOTAM


Warning: file_get_contents(http://api.vateud.net/notams/EYVI.json): failed to open stream: Redirection limit reached, aborting in /var/www/customers/vh-7192/web/home/phpvms/core/common/NOTAMSData.class.php on line 18

Warning: Invalid argument supplied for foreach() in /var/www/customers/vh-7192/web/home/phpvms/core/common/NOTAMSData.class.php on line 22

VILNIUS INTL